sensor_id;sensor_type;location;lat;lon;timestamp;P1;durP1;ratioP1;P2;durP2;ratioP2
69305;SDS011;56427;51.580;4.656;2022-07-25T00:02:20;8.37;;;5.60;;
69305;SDS011;56427;51.580;4.656;2022-07-25T00:04:46;10.57;;;5.63;;
69305;SDS011;56427;51.580;4.656;2022-07-25T00:07:11;8.43;;;5.83;;
69305;SDS011;56427;51.580;4.656;2022-07-25T00:09:37;9.63;;;5.80;;
69305;SDS011;56427;51.580;4.656;2022-07-25T00:12:02;9.00;;;5.30;;
69305;SDS011;56427;51.580;4.656;2022-07-25T00:14:27;6.63;;;5.57;;
69305;SDS011;56427;51.580;4.656;2022-07-25T00:16:53;9.13;;;5.57;;
69305;SDS011;56427;51.580;4.656;2022-07-25T00:19:18;10.10;;;6.20;;
69305;SDS011;56427;51.580;4.656;2022-07-25T00:21:43;7.70;;;5.93;;
69305;SDS011;56427;51.580;4.656;2022-07-25T00:24:09;9.73;;;5.90;;
69305;SDS011;56427;51.580;4.656;2022-07-25T00:26:34;10.47;;;5.63;;
69305;SDS011;56427;51.580;4.656;2022-07-25T00:29:00;8.68;;;5.30;;
69305;SDS011;56427;51.580;4.656;2022-07-25T00:31:25;11.27;;;5.87;;
69305;SDS011;56427;51.580;4.656;2022-07-25T00:33:51;9.47;;;5.60;;
69305;SDS011;56427;51.580;4.656;2022-07-25T00:36:16;8.57;;;5.55;;
69305;SDS011;56427;51.580;4.656;2022-07-25T00:38:41;10.10;;;5.70;;
69305;SDS011;56427;51.580;4.656;2022-07-25T00:41:07;11.03;;;5.30;;
69305;SDS011;56427;51.580;4.656;2022-07-25T00:43:32;7.87;;;5.27;;
69305;SDS011;56427;51.580;4.656;2022-07-25T00:45:57;10.07;;;5.53;;
69305;SDS011;56427;51.580;4.656;2022-07-25T00:48:24;7.90;;;5.82;;
69305;SDS011;56427;51.580;4.656;2022-07-25T00:50:49;9.60;;;5.95;;
69305;SDS011;56427;51.580;4.656;2022-07-25T00:53:15;8.83;;;5.73;;
69305;SDS011;56427;51.580;4.656;2022-07-25T00:55:40;9.50;;;5.70;;
69305;SDS011;56427;51.580;4.656;2022-07-25T00:58:06;8.87;;;5.90;;
69305;SDS011;56427;51.580;4.656;2022-07-25T01:00:31;9.10;;;5.88;;
69305;SDS011;56427;51.580;4.656;2022-07-25T01:02:56;7.83;;;5.90;;
69305;SDS011;56427;51.580;4.656;2022-07-25T01:05:22;7.33;;;5.30;;
69305;SDS011;56427;51.580;4.656;2022-07-25T01:07:47;6.63;;;5.07;;
69305;SDS011;56427;51.580;4.656;2022-07-25T01:10:13;8.00;;;5.53;;
69305;SDS011;56427;51.580;4.656;2022-07-25T01:12:52;11.33;;;5.63;;
69305;SDS011;56427;51.580;4.656;2022-07-25T01:15:19;9.35;;;6.10;;
69305;SDS011;56427;51.580;4.656;2022-07-25T01:17:47;6.85;;;5.88;;
69305;SDS011;56427;51.580;4.656;2022-07-25T01:20:16;8.57;;;6.80;;
69305;SDS011;56427;51.580;4.656;2022-07-25T01:22:46;10.95;;;6.65;;
69305;SDS011;56427;51.580;4.656;2022-07-25T01:25:12;9.03;;;6.43;;
69305;SDS011;56427;51.580;4.656;2022-07-25T01:27:38;11.75;;;6.30;;
69305;SDS011;56427;51.580;4.656;2022-07-25T01:30:05;10.73;;;6.57;;
69305;SDS011;56427;51.580;4.656;2022-07-25T01:32:33;10.93;;;6.43;;
69305;SDS011;56427;51.580;4.656;2022-07-25T01:34:58;8.07;;;6.43;;
69305;SDS011;56427;51.580;4.656;2022-07-25T01:37:24;10.80;;;6.33;;
69305;SDS011;56427;51.580;4.656;2022-07-25T01:39:49;11.20;;;6.73;;
69305;SDS011;56427;51.580;4.656;2022-07-25T01:42:14;8.65;;;6.65;;
69305;SDS011;56427;51.580;4.656;2022-07-25T01:44:40;9.43;;;6.47;;
69305;SDS011;56427;51.580;4.656;2022-07-25T01:47:05;10.27;;;6.70;;
69305;SDS011;56427;51.580;4.656;2022-07-25T01:49:30;9.80;;;6.80;;
69305;SDS011;56427;51.580;4.656;2022-07-25T01:51:56;8.93;;;6.90;;
69305;SDS011;56427;51.580;4.656;2022-07-25T01:54:21;11.33;;;6.70;;
69305;SDS011;56427;51.580;4.656;2022-07-25T01:56:46;10.33;;;7.57;;
69305;SDS011;56427;51.580;4.656;2022-07-25T01:59:12;9.07;;;6.90;;
69305;SDS011;56427;51.580;4.656;2022-07-25T02:01:37;11.70;;;7.37;;
69305;SDS011;56427;51.580;4.656;2022-07-25T02:04:03;11.47;;;6.93;;
69305;SDS011;56427;51.580;4.656;2022-07-25T02:06:28;12.43;;;7.40;;
69305;SDS011;56427;51.580;4.656;2022-07-25T02:08:54;11.90;;;6.90;;
69305;SDS011;56427;51.580;4.656;2022-07-25T02:11:19;11.37;;;7.37;;
69305;SDS011;56427;51.580;4.656;2022-07-25T02:13:44;11.57;;;7.73;;
69305;SDS011;56427;51.580;4.656;2022-07-25T02:16:11;10.98;;;7.85;;
69305;SDS011;56427;51.580;4.656;2022-07-25T02:18:36;10.03;;;6.67;;
69305;SDS011;56427;51.580;4.656;2022-07-25T02:21:02;11.18;;;7.65;;
69305;SDS011;56427;51.580;4.656;2022-07-25T02:23:31;10.57;;;6.97;;
69305;SDS011;56427;51.580;4.656;2022-07-25T02:25:57;10.55;;;7.75;;
69305;SDS011;56427;51.580;4.656;2022-07-25T02:28:22;11.17;;;7.93;;
69305;SDS011;56427;51.580;4.656;2022-07-25T02:30:47;11.20;;;8.07;;
69305;SDS011;56427;51.580;4.656;2022-07-25T02:33:13;12.27;;;7.90;;
69305;SDS011;56427;51.580;4.656;2022-07-25T02:35:38;9.67;;;7.40;;
69305;SDS011;56427;51.580;4.656;2022-07-25T02:38:03;14.50;;;7.97;;
69305;SDS011;56427;51.580;4.656;2022-07-25T02:40:29;14.10;;;7.83;;
69305;SDS011;56427;51.580;4.656;2022-07-25T02:42:54;12.93;;;7.63;;
69305;SDS011;56427;51.580;4.656;2022-07-25T02:45:19;11.50;;;8.10;;
69305;SDS011;56427;51.580;4.656;2022-07-25T02:47:45;10.93;;;8.27;;
69305;SDS011;56427;51.580;4.656;2022-07-25T02:50:10;11.30;;;7.68;;
69305;SDS011;56427;51.580;4.656;2022-07-25T02:52:36;13.40;;;8.13;;
69305;SDS011;56427;51.580;4.656;2022-07-25T02:55:01;12.77;;;8.20;;
69305;SDS011;56427;51.580;4.656;2022-07-25T02:57:27;12.35;;;8.20;;
69305;SDS011;56427;51.580;4.656;2022-07-25T02:59:53;12.93;;;8.23;;
69305;SDS011;56427;51.580;4.656;2022-07-25T03:02:18;11.97;;;8.40;;
69305;SDS011;56427;51.580;4.656;2022-07-25T03:04:43;13.07;;;7.73;;
69305;SDS011;56427;51.580;4.656;2022-07-25T03:07:09;11.67;;;8.37;;
69305;SDS011;56427;51.580;4.656;2022-07-25T03:09:34;11.00;;;8.07;;
69305;SDS011;56427;51.580;4.656;2022-07-25T03:11:59;11.27;;;7.73;;
69305;SDS011;56427;51.580;4.656;2022-07-25T03:14:24;10.80;;;7.97;;
69305;SDS011;56427;51.580;4.656;2022-07-25T03:16:50;12.03;;;8.23;;
69305;SDS011;56427;51.580;4.656;2022-07-25T03:19:16;11.67;;;8.33;;
69305;SDS011;56427;51.580;4.656;2022-07-25T03:21:41;11.32;;;8.30;;
69305;SDS011;56427;51.580;4.656;2022-07-25T03:24:07;13.10;;;8.47;;
69305;SDS011;56427;51.580;4.656;2022-07-25T03:26:32;12.33;;;8.00;;
69305;SDS011;56427;51.580;4.656;2022-07-25T03:28:57;11.60;;;8.33;;
69305;SDS011;56427;51.580;4.656;2022-07-25T03:31:22;11.10;;;8.30;;
69305;SDS011;56427;51.580;4.656;2022-07-25T03:33:48;12.33;;;8.77;;
69305;SDS011;56427;51.580;4.656;2022-07-25T03:36:13;14.10;;;8.53;;
69305;SDS011;56427;51.580;4.656;2022-07-25T03:38:38;12.93;;;8.35;;
69305;SDS011;56427;51.580;4.656;2022-07-25T03:41:04;11.07;;;8.00;;
69305;SDS011;56427;51.580;4.656;2022-07-25T03:43:30;11.87;;;7.77;;
69305;SDS011;56427;51.580;4.656;2022-07-25T03:45:55;14.05;;;8.88;;
69305;SDS011;56427;51.580;4.656;2022-07-25T03:48:21;13.43;;;8.83;;
69305;SDS011;56427;51.580;4.656;2022-07-25T03:50:46;12.87;;;9.80;;
69305;SDS011;56427;51.580;4.656;2022-07-25T03:53:11;15.57;;;9.57;;
69305;SDS011;56427;51.580;4.656;2022-07-25T03:55:37;14.17;;;10.33;;
69305;SDS011;56427;51.580;4.656;2022-07-25T03:58:03;13.73;;;10.57;;
69305;SDS011;56427;51.580;4.656;2022-07-25T04:00:29;15.97;;;11.37;;
69305;SDS011;56427;51.580;4.656;2022-07-25T04:02:54;14.87;;;10.37;;
69305;SDS011;56427;51.580;4.656;2022-07-25T04:05:19;13.60;;;10.57;;
69305;SDS011;56427;51.580;4.656;2022-07-25T04:07:45;14.87;;;10.43;;
69305;SDS011;56427;51.580;4.656;2022-07-25T04:10:10;13.82;;;9.10;;
69305;SDS011;56427;51.580;4.656;2022-07-25T04:12:35;12.90;;;8.90;;
69305;SDS011;56427;51.580;4.656;2022-07-25T04:15:01;13.43;;;8.90;;
69305;SDS011;56427;51.580;4.656;2022-07-25T04:17:26;9.57;;;7.60;;
69305;SDS011;56427;51.580;4.656;2022-07-25T04:19:52;11.85;;;7.60;;
69305;SDS011;56427;51.580;4.656;2022-07-25T04:22:17;9.67;;;6.80;;
69305;SDS011;56427;51.580;4.656;2022-07-25T04:24:42;11.47;;;6.30;;
69305;SDS011;56427;51.580;4.656;2022-07-25T04:27:08;7.90;;;6.37;;
69305;SDS011;56427;51.580;4.656;2022-07-25T04:29:33;10.07;;;5.60;;
69305;SDS011;56427;51.580;4.656;2022-07-25T04:31:59;8.63;;;6.17;;
69305;SDS011;56427;51.580;4.656;2022-07-25T04:34:24;7.43;;;5.07;;
69305;SDS011;56427;51.580;4.656;2022-07-25T04:36:50;6.87;;;5.37;;
69305;SDS011;56427;51.580;4.656;2022-07-25T04:39:15;9.43;;;5.40;;
69305;SDS011;56427;51.580;4.656;2022-07-25T04:41:40;9.70;;;5.10;;
69305;SDS011;56427;51.580;4.656;2022-07-25T04:44:06;9.93;;;4.78;;
69305;SDS011;56427;51.580;4.656;2022-07-25T04:46:32;8.20;;;4.90;;
69305;SDS011;56427;51.580;4.656;2022-07-25T04:48:57;5.95;;;4.50;;
69305;SDS011;56427;51.580;4.656;2022-07-25T04:51:23;10.13;;;4.20;;
69305;SDS011;56427;51.580;4.656;2022-07-25T04:53:48;7.60;;;3.90;;
69305;SDS011;56427;51.580;4.656;2022-07-25T04:56:13;8.87;;;4.17;;
69305;SDS011;56427;51.580;4.656;2022-07-25T04:58:39;5.13;;;3.35;;
69305;SDS011;56427;51.580;4.656;2022-07-25T05:01:05;7.63;;;3.20;;
69305;SDS011;56427;51.580;4.656;2022-07-25T05:03:31;8.02;;;2.90;;
69305;SDS011;56427;51.580;4.656;2022-07-25T05:05:56;4.10;;;2.97;;
69305;SDS011;56427;51.580;4.656;2022-07-25T05:08:21;5.83;;;3.00;;
69305;SDS011;56427;51.580;4.656;2022-07-25T05:10:47;4.77;;;2.80;;
69305;SDS011;56427;51.580;4.656;2022-07-25T05:13:12;4.45;;;2.80;;
69305;SDS011;56427;51.580;4.656;2022-07-25T05:15:37;4.90;;;2.87;;
69305;SDS011;56427;51.580;4.656;2022-07-25T05:18:03;6.30;;;2.60;;
69305;SDS011;56427;51.580;4.656;2022-07-25T05:20:28;8.70;;;2.47;;
69305;SDS011;56427;51.580;4.656;2022-07-25T05:22:53;5.20;;;2.50;;
69305;SDS011;56427;51.580;4.656;2022-07-25T05:25:19;4.40;;;2.23;;
69305;SDS011;56427;51.580;4.656;2022-07-25T05:27:44;4.05;;;2.40;;
69305;SDS011;56427;51.580;4.656;2022-07-25T05:30:10;4.47;;;2.33;;
69305;SDS011;56427;51.580;4.656;2022-07-25T05:32:37;4.07;;;2.20;;
69305;SDS011;56427;51.580;4.656;2022-07-25T05:35:03;5.10;;;2.28;;
69305;SDS011;56427;51.580;4.656;2022-07-25T05:37:31;3.90;;;2.00;;
69305;SDS011;56427;51.580;4.656;2022-07-25T05:39:57;4.88;;;2.25;;
69305;SDS011;56427;51.580;4.656;2022-07-25T05:42:22;8.50;;;2.50;;
69305;SDS011;56427;51.580;4.656;2022-07-25T05:44:47;8.17;;;2.50;;
69305;SDS011;56427;51.580;4.656;2022-07-25T05:47:13;11.63;;;2.37;;
69305;SDS011;56427;51.580;4.656;2022-07-25T05:49:38;4.23;;;2.20;;
69305;SDS011;56427;51.580;4.656;2022-07-25T05:52:04;5.80;;;2.30;;
69305;SDS011;56427;51.580;4.656;2022-07-25T05:54:30;6.67;;;2.13;;
69305;SDS011;56427;51.580;4.656;2022-07-25T05:56:55;6.93;;;2.10;;
69305;SDS011;56427;51.580;4.656;2022-07-25T05:59:21;5.57;;;2.20;;
69305;SDS011;56427;51.580;4.656;2022-07-25T06:01:46;8.20;;;2.30;;
69305;SDS011;56427;51.580;4.656;2022-07-25T06:04:11;8.77;;;2.10;;
69305;SDS011;56427;51.580;4.656;2022-07-25T06:06:37;6.03;;;2.10;;
69305;SDS011;56427;51.580;4.656;2022-07-25T06:09:02;9.60;;;1.90;;
69305;SDS011;56427;51.580;4.656;2022-07-25T06:11:28;6.28;;;1.95;;
69305;SDS011;56427;51.580;4.656;2022-07-25T06:13:54;7.90;;;1.90;;
69305;SDS011;56427;51.580;4.656;2022-07-25T06:16:20;9.38;;;2.20;;
69305;SDS011;56427;51.580;4.656;2022-07-25T06:18:45;10.03;;;2.13;;
69305;SDS011;56427;51.580;4.656;2022-07-25T06:21:10;8.40;;;2.03;;
69305;SDS011;56427;51.580;4.656;2022-07-25T06:23:36;5.43;;;1.70;;
69305;SDS011;56427;51.580;4.656;2022-07-25T06:26:01;8.53;;;1.87;;
69305;SDS011;56427;51.580;4.656;2022-07-25T06:28:27;8.77;;;2.07;;
69305;SDS011;56427;51.580;4.656;2022-07-25T06:30:52;8.07;;;2.00;;
69305;SDS011;56427;51.580;4.656;2022-07-25T06:33:18;8.90;;;1.90;;
69305;SDS011;56427;51.580;4.656;2022-07-25T06:35:43;6.50;;;2.00;;
69305;SDS011;56427;51.580;4.656;2022-07-25T06:38:08;8.00;;;2.00;;
69305;SDS011;56427;51.580;4.656;2022-07-25T06:40:34;9.43;;;2.13;;
69305;SDS011;56427;51.580;4.656;2022-07-25T06:42:59;6.23;;;1.93;;
69305;SDS011;56427;51.580;4.656;2022-07-25T06:45:24;8.03;;;2.30;;
69305;SDS011;56427;51.580;4.656;2022-07-25T06:47:50;5.30;;;1.87;;
69305;SDS011;56427;51.580;4.656;2022-07-25T06:50:16;8.53;;;2.20;;
69305;SDS011;56427;51.580;4.656;2022-07-25T06:52:42;6.60;;;1.88;;
69305;SDS011;56427;51.580;4.656;2022-07-25T06:55:09;7.63;;;1.90;;
69305;SDS011;56427;51.580;4.656;2022-07-25T06:57:37;6.75;;;2.10;;
69305;SDS011;56427;51.580;4.656;2022-07-25T07:00:03;7.67;;;2.27;;
69305;SDS011;56427;51.580;4.656;2022-07-25T07:02:32;8.93;;;2.40;;
69305;SDS011;56427;51.580;4.656;2022-07-25T07:04:58;8.23;;;1.90;;
69305;SDS011;56427;51.580;4.656;2022-07-25T07:07:23;7.13;;;2.30;;
69305;SDS011;56427;51.580;4.656;2022-07-25T07:09:48;11.57;;;2.10;;
69305;SDS011;56427;51.580;4.656;2022-07-25T07:12:14;8.23;;;2.20;;
69305;SDS011;56427;51.580;4.656;2022-07-25T07:14:39;10.83;;;2.20;;
69305;SDS011;56427;51.580;4.656;2022-07-25T07:17:05;11.45;;;2.50;;
69305;SDS011;56427;51.580;4.656;2022-07-25T07:19:31;8.87;;;2.17;;
69305;SDS011;56427;51.580;4.656;2022-07-25T07:21:56;9.87;;;2.20;;
69305;SDS011;56427;51.580;4.656;2022-07-25T07:24:21;11.07;;;2.60;;
69305;SDS011;56427;51.580;4.656;2022-07-25T07:26:47;7.28;;;2.42;;
69305;SDS011;56427;51.580;4.656;2022-07-25T07:29:12;8.00;;;2.30;;
69305;SDS011;56427;51.580;4.656;2022-07-25T07:31:38;10.48;;;2.30;;
69305;SDS011;56427;51.580;4.656;2022-07-25T07:34:04;5.53;;;2.17;;
69305;SDS011;56427;51.580;4.656;2022-07-25T07:36:30;7.38;;;1.95;;
69305;SDS011;56427;51.580;4.656;2022-07-25T07:38:55;8.83;;;2.50;;
69305;SDS011;56427;51.580;4.656;2022-07-25T07:41:20;9.67;;;2.30;;
69305;SDS011;56427;51.580;4.656;2022-07-25T07:43:45;8.60;;;2.03;;
69305;SDS011;56427;51.580;4.656;2022-07-25T07:46:11;8.70;;;2.10;;
69305;SDS011;56427;51.580;4.656;2022-07-25T07:48:36;8.33;;;2.00;;
69305;SDS011;56427;51.580;4.656;2022-07-25T07:51:02;6.25;;;2.22;;
69305;SDS011;56427;51.580;4.656;2022-07-25T07:53:28;9.80;;;1.87;;
69305;SDS011;56427;51.580;4.656;2022-07-25T07:56:13;12.20;;;2.67;;
69305;SDS011;56427;51.580;4.656;2022-07-25T07:58:39;10.85;;;2.45;;
69305;SDS011;56427;51.580;4.656;2022-07-25T08:01:05;7.57;;;2.30;;
69305;SDS011;56427;51.580;4.656;2022-07-25T08:03:30;7.88;;;1.98;;
69305;SDS011;56427;51.580;4.656;2022-07-25T08:05:56;8.33;;;2.17;;
69305;SDS011;56427;51.580;4.656;2022-07-25T08:08:22;7.03;;;2.20;;
69305;SDS011;56427;51.580;4.656;2022-07-25T08:10:48;9.40;;;2.47;;
69305;SDS011;56427;51.580;4.656;2022-07-25T08:13:26;8.02;;;2.90;;
69305;SDS011;56427;51.580;4.656;2022-07-25T08:15:54;7.63;;;2.40;;
69305;SDS011;56427;51.580;4.656;2022-07-25T08:18:22;11.63;;;2.30;;
69305;SDS011;56427;51.580;4.656;2022-07-25T08:20:48;6.23;;;1.90;;
69305;SDS011;56427;51.580;4.656;2022-07-25T08:23:14;8.05;;;1.95;;
69305;SDS011;56427;51.580;4.656;2022-07-25T08:25:41;12.07;;;2.80;;
69305;SDS011;56427;51.580;4.656;2022-07-25T08:28:07;7.82;;;2.40;;
69305;SDS011;56427;51.580;4.656;2022-07-25T08:30:33;6.57;;;1.93;;
69305;SDS011;56427;51.580;4.656;2022-07-25T08:33:00;5.93;;;2.00;;
69305;SDS011;56427;51.580;4.656;2022-07-25T08:35:29;6.63;;;1.83;;
69305;SDS011;56427;51.580;4.656;2022-07-25T08:37:55;9.90;;;2.10;;
69305;SDS011;56427;51.580;4.656;2022-07-25T08:40:21;7.75;;;2.00;;
69305;SDS011;56427;51.580;4.656;2022-07-25T08:42:48;7.77;;;1.90;;
69305;SDS011;56427;51.580;4.656;2022-07-25T08:45:14;5.93;;;1.95;;
69305;SDS011;56427;51.580;4.656;2022-07-25T08:47:43;6.60;;;2.17;;
69305;SDS011;56427;51.580;4.656;2022-07-25T08:50:11;8.80;;;2.20;;
69305;SDS011;56427;51.580;4.656;2022-07-25T08:52:41;8.30;;;2.15;;
69305;SDS011;56427;51.580;4.656;2022-07-25T08:55:08;7.43;;;2.23;;
69305;SDS011;56427;51.580;4.656;2022-07-25T08:57:37;9.15;;;2.30;;
69305;SDS011;56427;51.580;4.656;2022-07-25T09:00:05;7.50;;;2.40;;
69305;SDS011;56427;51.580;4.656;2022-07-25T09:02:31;15.98;;;2.85;;
69305;SDS011;56427;51.580;4.656;2022-07-25T09:04:57;10.67;;;2.63;;
69305;SDS011;56427;51.580;4.656;2022-07-25T09:07:30;7.75;;;2.00;;
69305;SDS011;56427;51.580;4.656;2022-07-25T09:09:58;6.38;;;2.30;;
69305;SDS011;56427;51.580;4.656;2022-07-25T09:12:35;8.77;;;2.27;;
69305;SDS011;56427;51.580;4.656;2022-07-25T09:15:01;10.32;;;2.47;;
69305;SDS011;56427;51.580;4.656;2022-07-25T09:17:26;7.13;;;2.20;;
69305;SDS011;56427;51.580;4.656;2022-07-25T09:19:52;7.37;;;2.10;;
69305;SDS011;56427;51.580;4.656;2022-07-25T09:22:19;6.95;;;2.50;;
69305;SDS011;56427;51.580;4.656;2022-07-25T09:24:44;4.93;;;2.10;;
69305;SDS011;56427;51.580;4.656;2022-07-25T09:27:10;6.47;;;2.43;;
69305;SDS011;56427;51.580;4.656;2022-07-25T09:29:37;10.25;;;2.65;;
69305;SDS011;56427;51.580;4.656;2022-07-25T09:32:14;8.33;;;2.53;;
69305;SDS011;56427;51.580;4.656;2022-07-25T09:34:42;7.55;;;2.80;;
69305;SDS011;56427;51.580;4.656;2022-07-25T09:37:10;7.63;;;2.50;;
69305;SDS011;56427;51.580;4.656;2022-07-25T09:39:38;6.75;;;2.60;;
69305;SDS011;56427;51.580;4.656;2022-07-25T09:44:43;8.73;;;2.00;;
69305;SDS011;56427;51.580;4.656;2022-07-25T09:47:13;9.05;;;2.97;;
69305;SDS011;56427;51.580;4.656;2022-07-25T09:49:40;7.82;;;2.75;;
69305;SDS011;56427;51.580;4.656;2022-07-25T09:52:07;12.77;;;2.83;;
69305;SDS011;56427;51.580;4.656;2022-07-25T09:54:33;9.80;;;3.28;;
69305;SDS011;56427;51.580;4.656;2022-07-25T09:56:59;8.60;;;2.70;;
69305;SDS011;56427;51.580;4.656;2022-07-25T09:59:24;6.20;;;2.60;;
69305;SDS011;56427;51.580;4.656;2022-07-25T10:01:52;8.73;;;2.72;;
69305;SDS011;56427;51.580;4.656;2022-07-25T10:04:36;11.00;;;3.10;;
69305;SDS011;56427;51.580;4.656;2022-07-25T10:07:09;10.93;;;2.90;;
69305;SDS011;56427;51.580;4.656;2022-07-25T10:09:46;7.85;;;2.90;;
69305;SDS011;56427;51.580;4.656;2022-07-25T10:12:14;9.35;;;3.17;;
69305;SDS011;56427;51.580;4.656;2022-07-25T10:15:01;5.95;;;2.50;;
69305;SDS011;56427;51.580;4.656;2022-07-25T10:17:31;7.87;;;2.23;;
69305;SDS011;56427;51.580;4.656;2022-07-25T10:19:56;6.05;;;2.58;;
69305;SDS011;56427;51.580;4.656;2022-07-25T10:22:22;5.57;;;2.53;;
69305;SDS011;56427;51.580;4.656;2022-07-25T10:24:47;6.95;;;2.25;;
69305;SDS011;56427;51.580;4.656;2022-07-25T10:27:14;6.20;;;2.50;;
69305;SDS011;56427;51.580;4.656;2022-07-25T10:29:48;8.20;;;2.50;;
69305;SDS011;56427;51.580;4.656;2022-07-25T10:32:17;10.73;;;2.35;;
69305;SDS011;56427;51.580;4.656;2022-07-25T10:34:50;9.17;;;2.87;;
69305;SDS011;56427;51.580;4.656;2022-07-25T10:37:17;9.10;;;2.50;;
69305;SDS011;56427;51.580;4.656;2022-07-25T10:39:45;9.20;;;2.90;;
69305;SDS011;56427;51.580;4.656;2022-07-25T10:42:14;8.90;;;2.73;;
69305;SDS011;56427;51.580;4.656;2022-07-25T10:44:46;8.10;;;2.80;;
69305;SDS011;56427;51.580;4.656;2022-07-25T10:47:13;12.80;;;3.00;;
69305;SDS011;56427;51.580;4.656;2022-07-25T10:49:39;9.30;;;2.95;;
69305;SDS011;56427;51.580;4.656;2022-07-25T10:52:06;9.73;;;2.83;;
69305;SDS011;56427;51.580;4.656;2022-07-25T10:54:38;9.60;;;2.80;;
69305;SDS011;56427;51.580;4.656;2022-07-25T10:57:04;8.97;;;3.37;;
69305;SDS011;56427;51.580;4.656;2022-07-25T10:59:37;10.52;;;3.08;;
69305;SDS011;56427;51.580;4.656;2022-07-25T11:02:05;8.68;;;3.70;;
69305;SDS011;56427;51.580;4.656;2022-07-25T11:04:32;8.77;;;3.72;;
69305;SDS011;56427;51.580;4.656;2022-07-25T11:07:11;9.38;;;3.67;;
69305;SDS011;56427;51.580;4.656;2022-07-25T11:09:38;9.13;;;4.03;;
69305;SDS011;56427;51.580;4.656;2022-07-25T11:12:05;12.10;;;4.30;;
69305;SDS011;56427;51.580;4.656;2022-07-25T11:14:35;12.05;;;4.15;;
69305;SDS011;56427;51.580;4.656;2022-07-25T11:17:47;9.65;;;3.47;;
69305;SDS011;56427;51.580;4.656;2022-07-25T11:20:00;7.65;;;3.28;;
69305;SDS011;56427;51.580;4.656;2022-07-25T11:22:29;7.83;;;3.20;;
69305;SDS011;56427;51.580;4.656;2022-07-25T11:24:56;13.95;;;3.17;;
69305;SDS011;56427;51.580;4.656;2022-07-25T11:27:24;10.48;;;2.65;;
69305;SDS011;56427;51.580;4.656;2022-07-25T11:30:03;8.43;;;2.88;;
69305;SDS011;56427;51.580;4.656;2022-07-25T11:32:44;7.15;;;2.47;;
69305;SDS011;56427;51.580;4.656;2022-07-25T11:35:11;8.70;;;2.87;;
69305;SDS011;56427;51.580;4.656;2022-07-25T11:37:39;12.43;;;2.83;;
69305;SDS011;56427;51.580;4.656;2022-07-25T11:40:06;6.60;;;2.60;;
69305;SDS011;56427;51.580;4.656;2022-07-25T11:42:42;8.30;;;2.35;;
69305;SDS011;56427;51.580;4.656;2022-07-25T11:45:22;7.55;;;2.60;;
69305;SDS011;56427;51.580;4.656;2022-07-25T11:48:02;8.13;;;2.40;;
69305;SDS011;56427;51.580;4.656;2022-07-25T11:50:32;6.82;;;2.00;;
69305;SDS011;56427;51.580;4.656;2022-07-25T11:53:00;10.25;;;2.33;;
69305;SDS011;56427;51.580;4.656;2022-07-25T11:55:28;6.13;;;2.65;;
69305;SDS011;56427;51.580;4.656;2022-07-25T11:58:02;8.50;;;3.13;;
69305;SDS011;56427;51.580;4.656;2022-07-25T12:00:29;10.60;;;2.23;;
69305;SDS011;56427;51.580;4.656;2022-07-25T12:03:07;8.10;;;2.80;;
69305;SDS011;56427;51.580;4.656;2022-07-25T12:05:33;9.05;;;2.53;;
69305;SDS011;56427;51.580;4.656;2022-07-25T12:08:07;13.03;;;2.70;;
69305;SDS011;56427;51.580;4.656;2022-07-25T12:10:34;9.63;;;2.67;;
69305;SDS011;56427;51.580;4.656;2022-07-25T12:13:00;11.73;;;2.65;;
69305;SDS011;56427;51.580;4.656;2022-07-25T12:15:46;10.55;;;2.42;;
69305;SDS011;56427;51.580;4.656;2022-07-25T12:18:11;10.90;;;2.40;;
69305;SDS011;56427;51.580;4.656;2022-07-25T12:20:37;11.95;;;2.53;;
69305;SDS011;56427;51.580;4.656;2022-07-25T12:23:04;9.73;;;2.70;;
69305;SDS011;56427;51.580;4.656;2022-07-25T12:25:34;11.05;;;2.67;;
69305;SDS011;56427;51.580;4.656;2022-07-25T12:28:01;9.75;;;2.50;;
69305;SDS011;56427;51.580;4.656;2022-07-25T12:30:27;8.25;;;2.95;;
69305;SDS011;56427;51.580;4.656;2022-07-25T12:32:53;8.48;;;2.65;;
69305;SDS011;56427;51.580;4.656;2022-07-25T12:35:20;6.17;;;2.30;;
69305;SDS011;56427;51.580;4.656;2022-07-25T12:37:45;7.78;;;2.35;;
69305;SDS011;56427;51.580;4.656;2022-07-25T12:40:12;9.20;;;2.30;;
69305;SDS011;56427;51.580;4.656;2022-07-25T12:42:38;10.52;;;2.25;;
69305;SDS011;56427;51.580;4.656;2022-07-25T12:45:04;9.27;;;2.43;;
69305;SDS011;56427;51.580;4.656;2022-07-25T12:47:31;15.50;;;2.65;;
69305;SDS011;56427;51.580;4.656;2022-07-25T12:49:57;8.10;;;1.90;;
69305;SDS011;56427;51.580;4.656;2022-07-25T12:52:22;8.48;;;2.45;;
69305;SDS011;56427;51.580;4.656;2022-07-25T12:54:47;8.40;;;2.07;;
69305;SDS011;56427;51.580;4.656;2022-07-25T12:57:13;14.10;;;2.67;;
69305;SDS011;56427;51.580;4.656;2022-07-25T12:59:39;11.52;;;2.70;;
69305;SDS011;56427;51.580;4.656;2022-07-25T13:02:05;11.48;;;2.40;;
69305;SDS011;56427;51.580;4.656;2022-07-25T13:04:31;9.77;;;2.20;;
69305;SDS011;56427;51.580;4.656;2022-07-25T13:06:56;10.03;;;2.30;;
69305;SDS011;56427;51.580;4.656;2022-07-25T13:09:22;10.00;;;2.10;;
69305;SDS011;56427;51.580;4.656;2022-07-25T13:11:48;9.80;;;2.22;;
69305;SDS011;56427;51.580;4.656;2022-07-25T13:14:14;10.27;;;2.03;;
69305;SDS011;56427;51.580;4.656;2022-07-25T13:16:40;9.47;;;2.00;;
69305;SDS011;56427;51.580;4.656;2022-07-25T13:19:07;11.05;;;2.47;;
69305;SDS011;56427;51.580;4.656;2022-07-25T13:21:32;11.50;;;2.58;;
69305;SDS011;56427;51.580;4.656;2022-07-25T13:23:57;10.43;;;2.00;;
69305;SDS011;56427;51.580;4.656;2022-07-25T13:26:23;10.67;;;2.07;;
69305;SDS011;56427;51.580;4.656;2022-07-25T13:28:48;8.10;;;1.70;;
69305;SDS011;56427;51.580;4.656;2022-07-25T13:31:16;6.00;;;1.60;;
69305;SDS011;56427;51.580;4.656;2022-07-25T13:33:42;11.82;;;2.47;;
69305;SDS011;56427;51.580;4.656;2022-07-25T13:36:07;11.33;;;1.90;;
69305;SDS011;56427;51.580;4.656;2022-07-25T13:38:33;8.30;;;1.77;;
69305;SDS011;56427;51.580;4.656;2022-07-25T13:40:59;9.98;;;1.48;;
69305;SDS011;56427;51.580;4.656;2022-07-25T13:43:26;9.07;;;1.90;;
69305;SDS011;56427;51.580;4.656;2022-07-25T13:45:52;9.50;;;2.00;;
69305;SDS011;56427;51.580;4.656;2022-07-25T13:48:17;11.83;;;1.60;;
69305;SDS011;56427;51.580;4.656;2022-07-25T13:50:42;14.17;;;1.80;;
69305;SDS011;56427;51.580;4.656;2022-07-25T13:53:08;15.37;;;2.10;;
69305;SDS011;56427;51.580;4.656;2022-07-25T13:55:33;14.37;;;1.90;;
69305;SDS011;56427;51.580;4.656;2022-07-25T13:57:59;7.82;;;1.58;;
69305;SDS011;56427;51.580;4.656;2022-07-25T14:00:25;12.20;;;1.77;;
69305;SDS011;56427;51.580;4.656;2022-07-25T14:02:50;12.93;;;2.27;;
69305;SDS011;56427;51.580;4.656;2022-07-25T14:05:15;10.53;;;1.83;;
69305;SDS011;56427;51.580;4.656;2022-07-25T14:07:41;6.90;;;1.43;;
69305;SDS011;56427;51.580;4.656;2022-07-25T14:10:07;8.07;;;1.73;;
69305;SDS011;56427;51.580;4.656;2022-07-25T14:12:33;9.95;;;1.40;;
69305;SDS011;56427;51.580;4.656;2022-07-25T14:14:59;6.72;;;1.40;;
69305;SDS011;56427;51.580;4.656;2022-07-25T14:17:25;8.40;;;1.60;;
69305;SDS011;56427;51.580;4.656;2022-07-25T14:19:50;7.00;;;1.30;;
69305;SDS011;56427;51.580;4.656;2022-07-25T14:22:16;6.90;;;1.50;;
69305;SDS011;56427;51.580;4.656;2022-07-25T14:24:42;12.50;;;2.20;;
69305;SDS011;56427;51.580;4.656;2022-07-25T14:27:07;10.17;;;1.83;;
69305;SDS011;56427;51.580;4.656;2022-07-25T14:29:34;7.67;;;1.60;;
69305;SDS011;56427;51.580;4.656;2022-07-25T14:32:01;16.23;;;2.03;;
69305;SDS011;56427;51.580;4.656;2022-07-25T14:34:30;6.35;;;1.35;;
69305;SDS011;56427;51.580;4.656;2022-07-25T14:36:56;6.55;;;1.27;;
69305;SDS011;56427;51.580;4.656;2022-07-25T14:39:21;8.20;;;1.10;;
69305;SDS011;56427;51.580;4.656;2022-07-25T14:41:47;4.67;;;1.10;;
69305;SDS011;56427;51.580;4.656;2022-07-25T14:44:12;7.33;;;1.20;;